Time;durP1;ratioP1;P1;durP2;ratioP2;P2;SDS_P1;SDS_P2;PMS_P1;PMS_P2;Temp;Humidity;BMP_temperature;BMP_pressure;BME280_temperature;BME280_humidity;BME280_pressure;Samples;Min_cycle;Max_cycle;Signal;HPM_P1;HPM_P2
2022/01/27 00:07:39;;;;;;;29.65;16.45;;;;;;;-0.98;58.70;100801.91;1702370;82;21089;-72
2022/01/27 00:10:29;;;;;;;32.88;17.30;;;;;;;-1.22;58.85;100804.20;1700648;82;21117;-73
2022/01/27 00:12:48;;;;;;;31.00;16.52;;;;;;;-1.31;59.00;100803.92;1710902;83;22020;-72
2022/01/27 00:15:16;;;;;;;29.40;16.50;;;;;;;-1.37;59.06;100802.48;1706086;83;21539;-71
2022/01/27 00:17:48;;;;;;;33.48;18.00;;;;;;;-1.42;59.13;100801.18;1703854;82;21675;-71
2022/01/27 00:20:13;;;;;;;31.23;16.55;;;;;;;-1.47;59.20;100799.59;1699231;84;21106;-72
2022/01/27 00:22:40;;;;;;;28.83;16.00;;;;;;;-1.50;59.23;100799.12;1723949;82;21032;-70
2022/01/27 00:25:08;;;;;;;29.63;16.23;;;;;;;-1.54;59.19;100796.03;1707746;83;21133;-71
2022/01/27 00:27:34;;;;;;;30.55;16.25;;;;;;;-1.58;59.21;100789.98;1711885;83;21102;-72
2022/01/27 00:30:04;;;;;;;27.90;15.18;;;;;;;-1.63;59.22;100789.69;1712481;83;21109;-72
2022/01/27 00:32:31;;;;;;;29.45;15.53;;;;;;;-1.67;59.19;100790.03;1711160;83;21534;-74
2022/01/27 00:34:59;;;;;;;24.67;14.87;;;;;;;-1.73;59.14;100793.83;1694278;83;21577;-73
2022/01/27 00:37:26;;;;;;;29.05;16.02;;;;;;;-1.88;59.29;100796.33;1699462;83;21542;-73
2022/01/27 00:40:01;;;;;;;28.54;16.11;;;;;;;-1.94;59.44;100799.61;1680654;83;10000365;-74
2022/01/27 00:42:29;;;;;;;27.87;16.48;;;;;;;-2.00;59.62;100788.54;1719212;82;20998;-74
2022/01/27 00:44:56;;;;;;;30.82;16.35;;;;;;;-2.06;59.71;100790.02;1712432;83;21002;-73
2022/01/27 00:47:22;;;;;;;31.00;16.35;;;;;;;-2.12;59.80;100780.22;1693795;83;21058;-73
2022/01/27 00:49:49;;;;;;;29.25;14.75;;;;;;;-2.12;59.80;100780.22;1712125;83;21117;-73
2022/01/27 00:52:24;;;;;;;28.15;15.72;;;;;;;-2.14;59.93;100779.09;1704615;83;21238;-73
2022/01/27 00:54:45;;;;;;;30.35;15.40;;;;;;;-2.17;59.91;100786.47;1699247;83;21692;-73
2022/01/27 00:57:23;;;;;;;30.10;14.70;;;;;;;-2.20;59.90;100781.56;1705336;83;21110;-73
2022/01/27 01:05:00;;;;;;;28.27;13.72;;;;;;;-2.31;59.95;100777.98;1703951;82;21807;-74
2022/01/27 01:07:18;;;;;;;29.42;14.30;;;;;;;-2.37;59.90;100778.15;1721685;82;21046;-73
2022/01/27 01:10:26;;;;;;;25.57;14.38;;;;;;;-2.43;59.94;100782.27;1697567;83;22338;-72
2022/01/27 01:15:07;;;;;;;27.32;14.05;;;;;;;-2.52;60.00;100795.52;1699554;82;21603;-72
2022/01/27 01:17:35;;;;;;;29.55;14.93;;;;;;;-2.58;60.15;100792.25;1702764;82;21181;-73
2022/01/27 01:31:09;;;;;;;24.55;13.13;;;;;;;-2.61;60.69;100781.12;1692073;83;21126;-73
2022/01/27 01:33:27;;;;;;;23.05;13.10;;;;;;;-2.58;60.77;100794.38;1705653;82;21070;-70
2022/01/27 01:36:01;;;;;;;22.73;13.40;;;;;;;-2.58;60.80;100784.41;1708534;82;21152;-72
2022/01/27 01:38:21;;;;;;;24.35;12.75;;;;;;;-2.55;60.87;100783.59;1701301;82;21158;-73
2022/01/27 01:40:50;;;;;;;24.05;13.50;;;;;;;-2.53;60.85;100784.71;1648719;84;21543;-71
2022/01/27 01:43:17;;;;;;;22.45;12.25;;;;;;;-2.58;60.81;100780.48;1696434;82;21145;-73
2022/01/27 01:45:44;;;;;;;20.45;11.55;;;;;;;-2.64;60.87;100779.34;1704622;82;21058;-72
2022/01/27 01:48:10;;;;;;;19.98;11.35;;;;;;;-2.70;60.97;100783.45;1710954;82;21144;-73
2022/01/27 01:50:39;;;;;;;22.62;11.30;;;;;;;-2.79;61.07;100783.13;1702724;83;21054;-73
2022/01/27 01:53:07;;;;;;;23.20;11.57;;;;;;;-2.88;61.20;100780.18;1703155;82;21114;-71
2022/01/27 01:55:34;;;;;;;20.70;11.55;;;;;;;-3.01;61.41;100784.58;1707766;82;21102;-71
2022/01/27 01:58:01;;;;;;;20.23;11.97;;;;;;;-3.12;61.61;100779.19;1708444;81;21541;-75
2022/01/27 02:00:28;;;;;;;23.73;13.93;;;;;;;-3.21;61.81;100774.93;1670001;84;21108;-75
2022/01/27 02:02:55;;;;;;;24.12;13.88;;;;;;;-3.25;62.00;100774.12;1700762;82;21051;-76
2022/01/27 02:05:28;;;;;;;26.77;14.35;;;;;;;-3.33;62.21;100772.30;1709522;82;21062;-73
2022/01/27 02:19:19;;;;;;;25.27;13.78;;;;;;;-3.57;63.04;100772.58;1705981;82;21110;-75
2022/01/27 02:21:58;;;;;;;25.15;12.98;;;;;;;-3.63;63.19;100769.78;1692622;83;21145;-74
2022/01/27 02:24:28;;;;;;;24.82;12.88;;;;;;;-3.72;63.36;100766.32;1712583;83;21107;-74
2022/01/27 02:26:56;;;;;;;27.35;14.25;;;;;;;-3.80;63.54;100755.87;1712729;83;20976;-74
2022/01/27 02:29:23;;;;;;;23.67;13.15;;;;;;;-3.85;63.74;100756.81;1713080;83;21075;-74
2022/01/27 02:31:52;;;;;;;25.35;13.08;;;;;;;-3.89;63.97;100750.28;1729850;82;21054;-74
2022/01/27 02:34:19;;;;;;;22.70;13.00;;;;;;;-3.90;64.17;100753.88;1697075;83;21111;-74
2022/01/27 02:36:46;;;;;;;23.95;13.18;;;;;;;-3.92;64.33;100750.59;1731354;81;21062;-74
2022/01/27 02:39:13;;;;;;;24.40;13.08;;;;;;;-3.96;64.49;100741.46;1708088;82;21066;-73
2022/01/27 02:41:54;;;;;;;18.98;11.55;;;;;;;-3.96;64.65;100744.07;1701696;84;21101;-74
2022/01/27 02:44:55;;;;;;;21.97;11.97;;;;;;;-3.95;64.81;100743.89;1701611;82;21132;-74
2022/01/27 02:47:24;;;;;;;23.45;12.30;;;;;;;-3.94;64.96;100744.73;1701976;84;22163;-74
2022/01/27 02:49:50;;;;;;;24.23;12.35;;;;;;;-3.94;65.11;100749.47;1701602;84;21066;-75
2022/01/27 02:52:17;;;;;;;26.10;13.43;;;;;;;-3.92;65.23;100754.02;1701606;84;20994;-74
2022/01/27 02:54:43;;;;;;;23.73;12.23;;;;;;;-3.90;65.35;100749.47;1701522;84;21576;-74
2022/01/27 02:57:11;;;;;;;22.25;11.73;;;;;;;-3.85;65.44;100748.98;1701719;84;21544;-75
2022/01/27 02:59:38;;;;;;;21.73;12.82;;;;;;;-3.82;65.53;100746.06;1701672;84;21212;-74
2022/01/27 03:02:04;;;;;;;24.75;13.78;;;;;;;-3.80;65.61;100744.94;1701671;84;21082;-74
2022/01/27 03:04:34;;;;;;;23.87;12.95;;;;;;;-3.76;65.67;100742.83;1701880;84;21454;-74
2022/01/27 03:07:06;;;;;;;26.75;14.03;;;;;;;-3.72;65.72;100740.22;1704473;82;21046;-72
2022/01/27 03:09:34;;;;;;;26.50;14.28;;;;;;;-3.66;65.77;100747.91;1701793;84;20971;-72
2022/01/27 03:12:08;;;;;;;24.60;14.43;;;;;;;-3.59;65.78;100753.62;1701793;84;21479;-73
2022/01/27 03:14:35;;;;;;;26.82;14.23;;;;;;;-3.47;65.83;100745.52;1701659;84;21007;-73
2022/01/27 03:17:04;;;;;;;27.05;15.43;;;;;;;-3.32;65.81;100747.83;1701975;84;21486;-74
2022/01/27 03:19:31;;;;;;;26.87;14.30;;;;;;;-3.19;65.74;100745.55;1701988;84;21122;-73
2022/01/27 03:21:58;;;;;;;25.72;15.18;;;;;;;-3.14;65.70;100739.83;1701856;84;21070;-75
2022/01/27 03:24:25;;;;;;;26.40;14.90;;;;;;;-3.13;65.70;100740.96;1701731;84;21128;-74
2022/01/27 03:26:53;;;;;;;25.08;14.87;;;;;;;-3.13;65.76;100738.34;1701404;82;21025;-73
2022/01/27 03:29:20;;;;;;;24.65;14.60;;;;;;;-3.07;65.78;100735.09;1668127;84;21041;-77
2022/01/27 03:31:47;;;;;;;26.17;14.65;;;;;;;-3.05;65.76;100727.59;1721759;82;21013;-73
2022/01/27 03:34:15;;;;;;;26.00;14.00;;;;;;;-3.04;65.78;100731.34;1721741;82;20958;-74
2022/01/27 03:36:43;;;;;;;26.50;14.38;;;;;;;-3.02;65.87;100731.19;1721193;82;21532;-73
2022/01/27 03:39:10;;;;;;;29.77;15.63;;;;;;;-2.99;65.90;100730.38;1722116;83;21080;-74
2022/01/27 03:41:40;;;;;;;27.27;15.20;;;;;;;-2.93;65.92;100730.18;1721421;82;21575;-74
2022/01/27 03:44:07;;;;;;;26.60;15.03;;;;;;;-2.86;65.94;100721.53;1721907;83;21132;-74
2022/01/27 03:46:33;;;;;;;26.82;15.93;;;;;;;-2.80;65.88;100722.66;1721588;82;20958;-73
2022/01/27 03:49:00;;;;;;;26.90;14.45;;;;;;;-2.79;65.84;100720.88;1721947;82;21159;-73
2022/01/27 03:51:27;;;;;;;24.20;13.88;;;;;;;-2.81;65.77;100721.52;1721533;83;20966;-72
2022/01/27 03:53:55;;;;;;;27.95;15.23;;;;;;;-2.88;65.81;100716.14;1722155;82;20949;-72
2022/01/27 03:56:21;;;;;;;27.65;15.05;;;;;;;-2.95;65.84;100718.59;1721591;83;21061;-73
2022/01/27 03:58:48;;;;;;;27.07;14.33;;;;;;;-2.98;65.92;100715.50;1721666;82;20986;-73
2022/01/27 04:01:17;;;;;;;29.20;15.60;;;;;;;-3.03;65.94;100710.75;1721712;82;21177;-74
2022/01/27 04:03:44;;;;;;;26.87;14.65;;;;;;;-3.09;66.01;100709.62;1721815;82;21018;-73
2022/01/27 04:06:11;;;;;;;24.12;13.85;;;;;;;-3.13;66.10;100707.00;1699336;83;21050;-73
2022/01/27 04:08:38;;;;;;;27.15;14.80;;;;;;;-3.14;66.18;100695.41;1701647;83;21058;-73
2022/01/27 04:11:09;;;;;;;28.35;16.40;;;;;;;-3.16;66.22;100699.98;1701542;84;21053;-73
2022/01/27 04:13:36;;;;;;;28.32;16.40;;;;;;;-3.10;66.13;100701.44;1701722;84;21552;-74
2022/01/27 04:16:04;;;;;;;28.98;15.32;;;;;;;-3.14;66.06;100698.84;1701527;84;20991;-73
2022/01/27 04:18:31;;;;;;;28.45;15.95;;;;;;;-3.26;66.03;100689.69;1701867;84;21077;-73
2022/01/27 04:20:57;;;;;;;26.90;15.95;;;;;;;-3.39;66.03;100691.97;1701606;84;21002;-74
2022/01/27 04:23:26;;;;;;;29.72;15.60;;;;;;;-3.47;66.04;100695.90;1701659;82;21576;-73
2022/01/27 04:25:52;;;;;;;32.88;17.12;;;;;;;-3.52;66.01;100699.47;1701561;84;21187;-73
2022/01/27 04:28:27;;;;;;;29.27;16.82;;;;;;;-3.56;65.99;100695.88;1702019;84;20979;-73
2022/01/27 04:30:53;;;;;;;26.62;16.30;;;;;;;-3.52;65.98;100696.86;1701679;84;21027;-74
2022/01/27 04:33:22;;;;;;;26.12;15.23;;;;;;;-3.50;65.87;100696.22;1702498;84;20995;-74
2022/01/27 04:35:49;;;;;;;28.85;15.38;;;;;;;-3.48;65.74;100698.19;1701680;82;21550;-74
2022/01/27 04:38:30;;;;;;;29.77;15.68;;;;;;;-3.50;65.57;100695.73;1705335;82;21573;-73
2022/01/27 04:43:37;;;;;;;25.23;14.23;;;;;;;-3.54;65.37;100687.41;1702329;84;21062;-74
2022/01/27 04:48:35;;;;;;;30.43;15.60;;;;;;;-3.62;65.20;100683.49;1702429;84;21062;-73
2022/01/27 04:51:05;;;;;;;24.72;14.95;;;;;;;-3.68;65.15;100683.31;1701630;84;21832;-73
2022/01/27 04:53:34;;;;;;;26.45;14.60;;;;;;;-3.74;65.10;100682.16;1701978;84;21550;-72
2022/01/27 04:55:59;;;;;;;28.75;14.98;;;;;;;-3.80;65.04;100681.48;1700739;84;21128;-73
2022/01/27 04:58:32;;;;;;;25.10;14.80;;;;;;;-3.89;65.04;100675.42;1702097;82;21063;-73
2022/01/27 05:00:57;;;;;;;26.70;14.63;;;;;;;-3.99;64.98;100669.53;1701750;84;21066;-74
2022/01/27 05:03:35;;;;;;;27.20;14.68;;;;;;;-4.13;64.89;100664.45;1705210;82;21147;-73
2022/01/27 05:05:53;;;;;;;28.17;14.40;;;;;;;-4.30;64.89;100666.19;1716644;83;21011;-73
2022/01/27 05:08:19;;;;;;;28.92;14.95;;;;;;;-4.42;64.93;100667.92;1716944;82;20987;-74
2022/01/27 05:13:23;;;;;;;28.73;15.32;;;;;;;-4.58;65.13;100659.05;1662302;84;21132;-72
2022/01/27 05:15:49;;;;;;;26.97;14.53;;;;;;;-4.60;65.20;100663.61;1701804;84;21143;-73
2022/01/27 05:18:16;;;;;;;25.72;14.30;;;;;;;-4.60;65.26;100670.63;1701609;84;21031;-72
2022/01/27 05:20:43;;;;;;;25.60;14.33;;;;;;;-4.61;65.30;100665.05;1701438;84;21046;-72
2022/01/27 05:23:11;;;;;;;24.50;13.85;;;;;;;-4.62;65.29;100664.24;1702483;84;21105;-72
2022/01/27 05:25:38;;;;;;;27.75;14.60;;;;;;;-4.63;65.26;100674.34;1714260;82;21062;-72
2022/01/27 05:28:07;;;;;;;28.10;14.80;;;;;;;-4.65;65.25;100672.37;1704125;83;21083;-73
2022/01/27 05:30:34;;;;;;;24.30;13.78;;;;;;;-4.68;65.28;100675.28;1702016;84;21675;-72
2022/01/27 05:33:03;;;;;;;27.35;14.70;;;;;;;-4.68;65.30;100671.86;1702021;82;21086;-72
2022/01/27 05:35:31;;;;;;;24.87;13.80;;;;;;;-4.72;65.30;100666.15;1702040;82;21110;-73
2022/01/27 05:37:57;;;;;;;27.55;14.00;;;;;;;-4.75;65.28;100667.27;1701871;84;21093;-74
2022/01/27 05:40:24;;;;;;;24.18;13.03;;;;;;;-4.78;65.27;100666.77;1701571;84;21166;-72
2022/01/27 05:42:51;;;;;;;23.27;13.40;;;;;;;-4.81;65.34;100665.27;1701048;82;21114;-72
2022/01/27 05:45:17;;;;;;;25.23;13.55;;;;;;;-4.81;65.43;100670.97;1701718;84;21113;-73
2022/01/27 05:47:44;;;;;;;22.67;12.23;;;;;;;-4.80;65.51;100668.72;1700079;82;21074;-73
2022/01/27 05:50:11;;;;;;;29.18;13.15;;;;;;;-4.78;65.57;100675.88;1685725;85;20980;-74
2022/01/27 05:52:37;;;;;;;23.15;12.70;;;;;;;-4.78;65.66;100678.48;1685838;85;21128;-72
2022/01/27 05:55:05;;;;;;;24.63;12.70;;;;;;;-4.78;65.75;100675.39;1685660;85;21078;-73
2022/01/27 05:57:31;;;;;;;23.80;12.80;;;;;;;-4.75;65.79;100666.45;1685345;85;21005;-74
2022/01/27 05:59:58;;;;;;;25.95;12.98;;;;;;;-4.75;65.80;100658.14;1685613;85;21059;-73
2022/01/27 06:02:25;;;;;;;23.60;12.90;;;;;;;-4.74;65.79;100665.02;1693856;83;20968;-72
2022/01/27 06:04:52;;;;;;;27.25;14.18;;;;;;;-4.73;65.81;100665.83;1717009;83;21512;-72
2022/01/27 06:07:18;;;;;;;24.18;13.03;;;;;;;-4.72;65.79;100672.17;1716709;82;21003;-72
2022/01/27 06:09:45;;;;;;;24.02;12.93;;;;;;;-4.71;65.79;100666.47;1716775;83;21122;-73
2022/01/27 06:12:12;;;;;;;24.45;12.82;;;;;;;-4.67;65.79;100668.28;1717054;83;21052;-72
2022/01/27 06:14:40;;;;;;;22.85;13.43;;;;;;;-4.63;65.87;100663.11;1716851;83;21011;-73
2022/01/27 06:17:06;;;;;;;23.95;12.78;;;;;;;-4.56;65.97;100667.53;1716967;83;21159;-72
2022/01/27 06:19:35;;;;;;;25.05;13.40;;;;;;;-4.47;66.01;100668.41;1716580;83;20984;-71
2022/01/27 06:22:11;;;;;;;25.00;14.25;;;;;;;-4.33;66.07;100666.98;1716901;83;21010;-72
2022/01/27 06:24:30;;;;;;;23.70;13.53;;;;;;;-4.21;66.16;100659.67;1716965;83;21066;-73
2022/01/27 06:26:57;;;;;;;26.23;14.20;;;;;;;-4.11;66.07;100652.08;1716787;83;21057;-73
2022/01/27 06:29:23;;;;;;;21.50;12.90;;;;;;;-4.12;66.19;100656.12;1716892;83;21141;-73
2022/01/27 06:31:50;;;;;;;24.72;12.95;;;;;;;-4.10;66.32;100659.41;1716697;83;20968;-73
2022/01/27 06:34:17;;;;;;;24.50;13.55;;;;;;;-4.10;66.39;100648.48;1716954;83;20968;-72
2022/01/27 06:36:43;;;;;;;24.12;13.13;;;;;;;-4.02;66.53;100650.28;1716600;83;21023;-72
2022/01/27 06:39:10;;;;;;;20.97;12.23;;;;;;;-3.90;66.58;100644.28;1717042;83;21022;-72
2022/01/27 06:41:36;;;;;;;24.95;12.55;;;;;;;-3.78;66.54;100642.52;1716647;83;21517;-73
2022/01/27 06:44:05;;;;;;;22.07;13.13;;;;;;;-3.61;66.55;100636.81;1717278;83;20999;-73
2022/01/27 06:46:32;;;;;;;20.30;12.03;;;;;;;-3.41;66.59;100637.80;1716589;83;21014;-72
2022/01/27 06:49:00;;;;;;;21.33;12.40;;;;;;;-3.21;66.51;100639.09;1716809;83;21007;-73
2022/01/27 06:51:27;;;;;;;19.92;11.85;;;;;;;-3.00;66.41;100633.83;1716525;83;22264;-73
2022/01/27 06:53:53;;;;;;;20.40;11.48;;;;;;;-2.80;66.24;100626.43;1717196;83;21526;-72
2022/01/27 06:56:20;;;;;;;18.40;11.53;;;;;;;-2.60;66.10;100632.42;1716442;83;20992;-73
2022/01/27 06:58:46;;;;;;;19.30;11.10;;;;;;;-2.40;65.91;100632.84;1717283;83;20952;-73
2022/01/27 07:01:13;;;;;;;18.80;10.80;;;;;;;-2.19;65.74;100634.86;1716471;83;20983;-72
2022/01/27 07:03:40;;;;;;;19.25;12.18;;;;;;;-1.98;65.50;100625.57;1716950;83;21117;-72
2022/01/27 07:06:07;;;;;;;18.82;10.72;;;;;;;-1.60;64.92;100615.18;1716647;83;22037;-74
2022/01/27 07:08:34;;;;;;;18.48;11.05;;;;;;;-1.60;64.92;100615.18;1716993;82;20984;-73
2022/01/27 07:11:01;;;;;;;21.17;12.15;;;;;;;-1.47;64.44;100620.14;1716559;83;21077;-72
2022/01/27 07:13:27;;;;;;;18.95;11.50;;;;;;;-1.32;64.10;100608.87;1717282;83;21490;-72
2022/01/27 07:15:55;;;;;;;21.93;11.60;;;;;;;-1.19;63.73;100608.57;1706469;82;21051;-74
2022/01/27 07:18:22;;;;;;;20.80;11.48;;;;;;;-1.04;63.37;100603.86;1702280;84;21149;-73
2022/01/27 07:20:48;;;;;;;22.77;12.10;;;;;;;-0.91;62.99;100601.42;1701689;84;20979;-73
2022/01/27 07:23:16;;;;;;;23.77;12.53;;;;;;;-0.80;62.62;100596.22;1701605;84;21075;-74
2022/01/27 07:25:42;;;;;;;24.80;12.07;;;;;;;-0.68;62.24;100602.64;1701560;84;21114;-73
2022/01/27 07:28:09;;;;;;;22.35;11.60;;;;;;;-0.61;61.81;100587.80;1701849;83;21104;-74
2022/01/27 07:30:35;;;;;;;21.75;11.55;;;;;;;-0.55;61.46;100592.31;1701675;84;21224;-73
2022/01/27 07:33:02;;;;;;;20.15;12.35;;;;;;;-0.48;61.20;100589.27;1702224;84;21022;-74
2022/01/27 07:35:29;;;;;;;22.13;11.78;;;;;;;-0.40;60.98;100581.78;1701813;84;21026;-74
2022/01/27 07:37:55;;;;;;;20.80;11.12;;;;;;;-0.28;60.75;100575.56;1701654;84;21521;-74
2022/01/27 07:40:22;;;;;;;20.05;11.30;;;;;;;-0.13;60.54;100582.91;1701844;84;21572;-74
2022/01/27 07:42:49;;;;;;;20.17;10.43;;;;;;;0.04;60.28;100580.05;1701851;84;21104;-74
2022/01/27 07:45:15;;;;;;;19.30;10.58;;;;;;;0.22;60.06;100569.90;1701932;84;21031;-74
2022/01/27 07:47:42;;;;;;;18.62;10.45;;;;;;;0.42;59.76;100567.44;1701693;84;21041;-74
2022/01/27 07:50:09;;;;;;;16.55;9.83;;;;;;;0.59;59.41;100564.02;1702026;84;21011;-74
2022/01/27 07:52:37;;;;;;;17.50;10.75;;;;;;;0.73;59.05;100563.64;1702034;84;20986;-72
2022/01/27 07:55:04;;;;;;;14.50;9.18;;;;;;;0.86;58.70;100561.09;1699546;84;21031;-72
2022/01/27 07:57:30;;;;;;;17.80;9.75;;;;;;;1.00;58.26;100561.98;1701767;84;21066;-74
2022/01/27 07:59:57;;;;;;;16.65;10.00;;;;;;;1.11;57.84;100556.16;1701990;83;21046;-74
2022/01/27 08:02:24;;;;;;;16.67;9.70;;;;;;;1.21;57.41;100562.38;1701878;84;20979;-74
2022/01/27 08:04:50;;;;;;;19.27;10.15;;;;;;;1.26;56.99;100562.63;1701890;84;21085;-74
2022/01/27 08:07:17;;;;;;;16.17;9.63;;;;;;;1.30;56.77;100562.53;1702144;83;21038;-74
2022/01/27 08:09:43;;;;;;;15.60;10.08;;;;;;;1.36;56.51;100559.93;1701534;83;21034;-75
2022/01/27 08:12:10;;;;;;;15.83;9.65;;;;;;;1.42;56.39;100550.95;1702213;84;21010;-74
2022/01/27 08:14:38;;;;;;;15.32;9.85;;;;;;;1.54;56.29;100557.25;1701975;84;21455;-75
2022/01/27 08:17:05;;;;;;;16.55;9.98;;;;;;;1.67;56.16;100555.98;1701992;84;21027;-75
2022/01/27 08:19:32;;;;;;;17.12;9.75;;;;;;;1.80;55.90;100555.20;1702051;84;21564;-74
2022/01/27 08:21:59;;;;;;;16.50;9.93;;;;;;;1.90;55.74;100545.60;1701724;82;21014;-74
2022/01/27 08:24:25;;;;;;;15.78;9.05;;;;;;;1.99;55.53;100541.27;1703109;82;20990;-73
2022/01/27 08:26:58;;;;;;;13.08;8.90;;;;;;;2.08;55.27;100547.97;1701893;84;20998;-74
2022/01/27 08:29:25;;;;;;;18.23;10.13;;;;;;;2.17;55.10;100551.20;1702565;82;21549;-75
2022/01/27 08:34:30;;;;;;;17.15;9.93;;;;;;;2.24;54.75;100545.97;1668740;84;21111;-74
2022/01/27 08:36:51;;;;;;;18.48;10.25;;;;;;;2.29;54.72;100545.64;1670825;84;21035;-74
2022/01/27 08:39:18;;;;;;;14.95;9.25;;;;;;;2.41;54.65;100547.17;1715803;83;21024;-71
2022/01/27 08:41:44;;;;;;;16.85;10.50;;;;;;;2.53;54.45;100543.39;1708063;82;21086;-73
2022/01/27 08:44:12;;;;;;;15.10;9.80;;;;;;;2.61;54.30;100537.12;1681140;84;21027;-74
2022/01/27 08:46:40;;;;;;;15.48;9.55;;;;;;;2.67;54.30;100533.16;1707476;82;21714;-71
2022/01/27 08:49:07;;;;;;;14.18;9.68;;;;;;;2.79;54.17;100534.64;1701204;83;21074;-70
2022/01/27 08:51:34;;;;;;;14.80;9.30;;;;;;;2.92;53.95;100538.56;1712792;83;21004;-70
2022/01/27 08:54:01;;;;;;;12.60;8.65;;;;;;;3.02;53.63;100530.22;1704571;82;21113;-70
2022/01/27 08:56:28;;;;;;;15.30;9.85;;;;;;;3.10;53.43;100519.45;1701821;83;21206;-70
2022/01/27 08:58:56;;;;;;;16.55;10.03;;;;;;;3.14;53.25;100520.65;1728777;81;21081;-71
2022/01/27 09:01:24;;;;;;;16.52;10.05;;;;;;;3.17;53.11;100516.78;1743297;82;21011;-69
2022/01/27 09:03:51;;;;;;;17.12;9.80;;;;;;;3.26;53.05;100521.63;1743790;81;21561;-68
2022/01/27 09:06:21;;;;;;;16.35;10.28;;;;;;;3.33;52.84;100507.08;1743786;82;20964;-69
2022/01/27 09:08:49;;;;;;;15.15;10.93;;;;;;;3.37;52.68;100510.91;1743934;81;21767;-69
2022/01/27 09:11:16;;;;;;;14.63;10.13;;;;;;;3.41;52.47;100503.38;1743622;82;20956;-69
2022/01/27 09:13:43;;;;;;;16.65;11.00;;;;;;;3.43;52.53;100500.83;1743864;82;21010;-69
2022/01/27 09:16:10;;;;;;;15.88;10.40;;;;;;;3.45;52.51;100502.73;1743770;82;21051;-70
2022/01/27 09:18:37;;;;;;;16.20;10.48;;;;;;;3.49;52.52;100504.46;1718787;82;20967;-68
2022/01/27 09:21:11;;;;;;;15.45;10.63;;;;;;;3.53;52.49;100495.09;1743714;82;21090;-69
2022/01/27 09:23:35;;;;;;;15.15;10.05;;;;;;;3.56;52.47;100497.83;1722487;82;20967;-71
2022/01/27 09:26:06;;;;;;;15.72;9.38;;;;;;;3.62;52.60;100497.78;1701744;84;21049;-69
2022/01/27 09:28:31;;;;;;;13.70;9.13;;;;;;;3.64;52.47;100482.52;1701869;84;21189;-70
2022/01/27 09:30:59;;;;;;;15.70;10.40;;;;;;;3.56;52.87;100485.94;1701473;84;21034;-70
2022/01/27 09:33:26;;;;;;;14.00;10.15;;;;;;;3.58;53.15;100483.36;1701584;84;21878;-68
2022/01/27 09:35:53;;;;;;;14.75;9.53;;;;;;;3.68;53.38;100473.14;1701946;84;21023;-69
2022/01/27 09:38:20;;;;;;;14.03;9.53;;;;;;;3.82;53.43;100471.72;1701788;82;21113;-69
2022/01/27 09:40:50;;;;;;;14.65;9.85;;;;;;;3.92;53.38;100470.25;1701830;84;20999;-69
2022/01/27 09:43:17;;;;;;;15.95;10.80;;;;;;;3.99;53.48;100470.20;1701378;83;21176;-68
2022/01/27 09:45:45;;;;;;;14.45;10.05;;;;;;;4.08;53.49;100465.43;1701623;84;21222;-69
2022/01/27 09:48:14;;;;;;;17.27;10.13;;;;;;;4.16;53.23;100463.84;1704934;82;21066;-70
2022/01/27 09:53:14;;;;;;;15.78;10.60;;;;;;;4.32;53.19;100469.10;1701858;84;21491;-69
2022/01/27 09:55:39;;;;;;;14.45;10.00;;;;;;;4.44;53.25;100462.05;1701130;84;21042;-68
2022/01/27 09:58:07;;;;;;;15.25;10.38;;;;;;;4.56;53.31;100465.59;1711133;83;21199;-71
2022/01/27 10:00:34;;;;;;;16.80;10.90;;;;;;;4.64;53.24;100463.17;1716673;83;21106;-69
2022/01/27 10:03:11;;;;;;;16.45;11.30;;;;;;;4.66;53.26;100455.31;1704207;82;21150;-69
2022/01/27 10:05:38;;;;;;;15.88;10.68;;;;;;;4.67;53.25;100456.12;1701598;84;21133;-68
2022/01/27 10:08:14;;;;;;;15.58;10.65;;;;;;;4.63;53.18;100453.63;1702207;82;21525;-69
2022/01/27 10:10:44;;;;;;;15.15;10.50;;;;;;;4.58;53.24;100449.52;1701574;84;21353;-68
2022/01/27 10:13:31;;;;;;;15.25;11.05;;;;;;;4.52;53.27;100449.88;1701033;84;21699;-68
2022/01/27 10:16:00;;;;;;;13.58;10.48;;;;;;;4.45;53.35;100448.62;1723925;82;21083;-68
2022/01/27 10:18:34;;;;;;;15.15;10.80;;;;;;;4.40;53.47;100445.01;1713443;82;20941;-68
2022/01/27 10:21:02;;;;;;;17.77;11.73;;;;;;;4.35;53.63;100444.36;1720156;82;21052;-69
2022/01/27 10:23:33;;;;;;;15.70;10.85;;;;;;;4.35;53.80;100437.75;1737347;82;21120;-68
2022/01/27 10:26:13;;;;;;;15.53;10.72;;;;;;;4.31;53.91;100439.70;1722703;82;21086;-68
2022/01/27 10:28:50;;;;;;;17.57;11.85;;;;;;;4.25;53.92;100430.83;1717895;82;21145;-70
2022/01/27 10:31:19;;;;;;;;;;;;;;;4.16;54.05;100430.29;1714975;83;21091;-68
2022/01/27 10:33:57;;;;;;;15.85;10.80;;;;;;;4.10;54.10;100427.70;1713099;83;20137;-70
2022/01/27 10:36:27;;;;;;;18.02;11.90;;;;;;;4.02;54.35;100423.52;1712587;82;21112;-68
2022/01/27 10:38:59;;;;;;;17.48;11.80;;;;;;;3.96;54.52;100421.22;1712958;83;21512;-68
2022/01/27 10:41:32;;;;;;;16.87;11.03;;;;;;;3.97;54.68;100420.70;1714204;83;21028;-68
2022/01/27 10:44:17;;;;;;;19.12;12.93;;;;;;;4.02;54.85;100416.10;1714270;83;21107;-69
2022/01/27 10:47:12;;;;;;;17.77;12.03;;;;;;;4.04;54.87;100414.03;1714474;83;21633;-69
2022/01/27 10:49:43;;;;;;;17.32;12.88;;;;;;;4.05;55.06;100412.52;1719098;82;21162;-69
2022/01/27 10:52:13;;;;;;;18.50;13.08;;;;;;;4.05;55.38;100411.19;1713062;83;21426;-68
2022/01/27 10:54:48;;;;;;;16.00;11.88;;;;;;;4.07;55.60;100401.71;1714039;83;21597;-68
2022/01/27 10:57:13;;;;;;;18.60;13.05;;;;;;;4.13;55.76;100402.97;1714965;82;21057;-68
2022/01/27 10:59:41;;;;;;;19.60;13.03;;;;;;;4.09;55.82;100402.31;1713796;83;21058;-70
2022/01/27 11:02:11;;;;;;;19.20;13.08;;;;;;;4.04;56.01;100406.11;1709156;82;21121;-69
2022/01/27 11:04:40;;;;;;;17.80;12.78;;;;;;;3.98;56.02;100406.45;1705330;83;21063;-69
2022/01/27 11:07:10;;;;;;;17.92;11.97;;;;;;;3.85;56.11;100402.61;1712195;82;21066;-68
2022/01/27 11:09:41;;;;;;;20.92;14.10;;;;;;;3.70;56.31;100404.27;1701688;84;21006;-69
2022/01/27 11:12:11;;;;;;;22.00;14.23;;;;;;;3.55;56.58;100403.76;1706846;81;21555;-69
2022/01/27 11:14:36;;;;;;;18.67;13.62;;;;;;;3.46;56.93;100405.35;1662076;85;21527;-68
2022/01/27 11:17:05;;;;;;;20.20;13.45;;;;;;;3.43;57.24;100396.53;1700088;82;21191;-68
2022/01/27 11:27:31;;;;;;;19.77;14.28;;;;;;;3.35;57.80;100385.41;1677772;84;21455;-68
2022/01/27 11:30:20;;;;;;;20.10;13.80;;;;;;;3.39;57.96;100389.23;1699802;83;21552;-69
2022/01/27 11:33:06;;;;;;;19.20;12.37;;;;;;;3.42;58.02;100377.77;1661294;84;21077;-69
2022/01/27 11:35:33;;;;;;;17.85;12.47;;;;;;;3.42;58.02;100376.45;1714826;82;21530;-67
2022/01/27 11:38:03;;;;;;;21.05;13.98;;;;;;;3.39;58.15;100361.03;1718264;82;21078;-67
2022/01/27 11:40:45;;;;;;;21.10;13.70;;;;;;;3.41;58.27;100367.41;1672138;84;21171;-68
2022/01/27 11:43:18;;;;;;;21.00;13.20;;;;;;;3.40;58.22;100365.28;1679434;84;21082;-67
2022/01/27 11:45:52;;;;;;;21.87;14.28;;;;;;;3.33;58.30;100371.12;1701728;83;21032;-69
2022/01/27 11:48:26;;;;;;;23.60;15.48;;;;;;;3.30;58.50;100367.59;1720198;82;21062;-68
2022/01/27 11:51:13;;;;;;;21.90;15.28;;;;;;;3.32;58.68;100364.20;1725622;82;21554;-68
2022/01/27 11:53:45;;;;;;;19.77;13.32;;;;;;;3.40;58.80;100360.52;1734482;82;21189;-68
2022/01/27 11:56:31;;;;;;;22.52;16.05;;;;;;;3.47;58.65;100354.67;1672112;83;21585;-67
2022/01/27 11:59:00;;;;;;;21.33;15.18;;;;;;;3.42;58.57;100354.00;1714683;82;21037;-67
2022/01/27 12:01:29;;;;;;;22.05;15.48;;;;;;;3.34;58.54;100348.97;1714543;82;21043;-69
2022/01/27 12:04:12;;;;;;;19.45;13.75;;;;;;;3.29;58.73;100350.11;1697864;82;21517;-68
2022/01/27 12:06:51;;;;;;;22.35;14.60;;;;;;;3.28;58.87;100345.86;1701501;83;26548;-68
2022/01/27 12:09:25;;;;;;;22.07;14.83;;;;;;;3.24;59.00;100352.59;1686353;83;20998;-67
2022/01/27 12:12:02;;;;;;;24.43;16.32;;;;;;;3.20;59.16;100348.27;1721070;82;21086;-68
2022/01/27 12:14:45;;;;;;;24.40;16.00;;;;;;;3.20;59.23;100344.81;1712286;83;21597;-69
2022/01/27 12:17:16;;;;;;;23.83;15.65;;;;;;;3.22;59.31;100349.35;1721596;82;21157;-68
2022/01/27 12:19:57;;;;;;;23.38;16.23;;;;;;;3.22;59.41;100348.84;1717261;82;21881;-72